createdAt,value
2022-09-23T00:03:53.998Z,101331.59
2022-09-23T00:08:55.464Z,101327.66
2022-09-23T00:13:59.408Z,101315.75
2022-09-23T00:19:01.960Z,101316.94
2022-09-23T00:24:03.435Z,101310.16
2022-09-23T00:29:04.875Z,101304.41
2022-09-23T00:34:06.233Z,101312.38
2022-09-23T00:39:07.811Z,101298.63
2022-09-23T00:44:45.121Z,101307.00
2022-09-23T00:49:52.244Z,101302.28
2022-09-23T00:54:57.014Z,101298.53
2022-09-23T00:59:59.123Z,101301.59
2022-09-23T01:05:03.077Z,101295.81
2022-09-23T01:10:05.854Z,101285.34
2022-09-23T01:15:12.881Z,101285.56
2022-09-23T01:20:35.874Z,101278.56
2022-09-23T01:26:42.460Z,101281.19
2022-09-23T01:31:49.498Z,101277.06
2022-09-23T01:37:19.567Z,101275.00
2022-09-23T01:42:31.142Z,101272.69
2022-09-23T01:47:53.053Z,101274.94
2022-09-23T01:53:04.524Z,101271.00
2022-09-23T01:58:11.763Z,101271.00
2022-09-23T02:03:19.127Z,101267.25
2022-09-23T02:08:37.753Z,101268.69
2022-09-23T02:13:50.577Z,101263.91
2022-09-23T02:19:07.657Z,101257.16
2022-09-23T02:24:19.461Z,101255.88
2022-09-23T02:29:55.964Z,101251.38
2022-09-23T02:35:12.379Z,101251.13
2022-09-23T02:40:22.356Z,101247.19
2022-09-23T02:45:23.884Z,101239.19
2022-09-23T02:50:25.442Z,101227.47
2022-09-23T02:55:30.083Z,101219.06
2022-09-23T03:00:53.050Z,101223.75
2022-09-23T03:05:58.862Z,101217.34
2022-09-23T03:11:12.290Z,101211.56
2022-09-23T03:16:36.839Z,101207.63
2022-09-23T03:21:56.528Z,101211.28
2022-09-23T03:27:03.246Z,101214.53
2022-09-23T03:32:05.847Z,101206.75
2022-09-23T03:37:15.838Z,101204.25
2022-09-23T03:42:22.433Z,101212.44
2022-09-23T03:47:28.787Z,101205.84
2022-09-23T03:52:30.916Z,101193.31
2022-09-23T03:57:32.710Z,101196.97
2022-09-23T04:02:34.792Z,101195.69
2022-09-23T04:07:36.385Z,101188.94
2022-09-23T04:12:38.172Z,101191.13
2022-09-23T04:17:39.882Z,101187.22
2022-09-23T04:22:41.283Z,101179.41
2022-09-23T04:27:42.814Z,101180.00
2022-09-23T04:32:44.130Z,101167.88
2022-09-23T04:37:47.868Z,101163.16
2022-09-23T04:42:49.248Z,101172.13
2022-09-23T04:47:50.640Z,101162.69
2022-09-23T04:52:53.139Z,101158.94
2022-09-23T04:57:54.720Z,101161.97
2022-09-23T05:02:56.147Z,101158.69
2022-09-23T05:07:57.931Z,101146.41
2022-09-23T05:12:59.289Z,101155.00
2022-09-23T05:18:00.742Z,101160.88
2022-09-23T05:23:02.143Z,101151.66
2022-09-23T05:28:03.554Z,101150.00
2022-09-23T05:33:04.903Z,101144.50
2022-09-23T05:38:06.688Z,101147.34
2022-09-23T05:43:08.108Z,101145.13
2022-09-23T05:48:09.481Z,101161.06
2022-09-23T05:53:10.832Z,101156.66
2022-09-23T05:58:13.247Z,101166.28
2022-09-23T06:03:20.271Z,101169.00
2022-09-23T06:08:23.324Z,101160.28
2022-09-23T06:13:24.783Z,101164.66
2022-09-23T06:18:26.255Z,101165.94
2022-09-23T06:23:27.932Z,101167.44
2022-09-23T06:28:34.625Z,101168.97
2022-09-23T06:33:37.391Z,101163.78
2022-09-23T06:38:40.406Z,101161.91
2022-09-23T06:43:41.783Z,101162.63
2022-09-23T06:48:46.142Z,101146.53
2022-09-23T06:53:49.840Z,101165.06
2022-09-23T06:58:52.434Z,101169.50
2022-09-23T07:03:53.870Z,101166.38
2022-09-23T07:08:55.407Z,101178.56
2022-09-23T07:13:56.837Z,101177.88
2022-09-23T07:18:58.280Z,101175.75
2022-09-23T07:23:59.709Z,101173.91
2022-09-23T07:29:02.895Z,101171.19
2022-09-23T07:34:04.925Z,101173.91
2022-09-23T07:39:11.915Z,101168.88
2022-09-23T07:44:13.317Z,101184.03
2022-09-23T07:49:15.590Z,101191.09
2022-09-23T07:54:17.203Z,101185.03
2022-09-23T07:59:20.193Z,101184.03
2022-09-23T08:04:24.897Z,101185.34
2022-09-23T08:09:33.101Z,101180.69
2022-09-23T08:14:34.757Z,101182.19
2022-09-23T08:19:36.248Z,101183.69
2022-09-23T08:24:37.619Z,101181.94
2022-09-23T08:29:38.964Z,101177.66
2022-09-23T08:34:40.380Z,101179.41
2022-09-23T08:39:41.800Z,101176.97
2022-09-23T08:44:50.794Z,101159.50
2022-09-23T08:50:33.575Z,101162.31
2022-09-23T08:55:38.129Z,101165.03
2022-09-23T09:00:44.777Z,101166.72
2022-09-23T09:05:53.907Z,101165.16
2022-09-23T09:10:57.719Z,101163.84
2022-09-23T09:16:02.101Z,101159.91
2022-09-23T09:21:13.536Z,101153.94
2022-09-23T09:26:20.659Z,101155.53
2022-09-23T09:31:41.202Z,101165.56
2022-09-23T09:36:53.871Z,101153.34
2022-09-23T09:41:55.223Z,101145.38
2022-09-23T09:47:09.828Z,101144.47
2022-09-23T09:52:24.521Z,101138.66
2022-09-23T09:57:38.219Z,101131.59
2022-09-23T10:39:19.116Z,101112.13
2022-09-23T10:51:26.769Z,101106.06
2022-09-23T11:03:02.927Z,101100.78
2022-09-23T11:54:38.840Z,101056.38
2022-09-23T12:00:06.119Z,101056.38
2022-09-23T12:11:11.659Z,101041.59
2022-09-23T12:22:28.332Z,101039.66
2022-09-23T12:28:03.085Z,101037.31
2022-09-23T12:51:16.853Z,101015.91
2022-09-23T12:56:21.849Z,101021.31
2022-09-23T13:01:25.585Z,101022.97
2022-09-23T13:06:55.235Z,101011.84
2022-09-23T13:12:01.668Z,101004.84
2022-09-23T13:17:03.545Z,101003.75
2022-09-23T13:22:09.585Z,100998.75
2022-09-23T13:27:21.755Z,100995.78
2022-09-23T13:32:28.849Z,101000.06
2022-09-23T13:37:40.538Z,101000.19
2022-09-23T13:42:44.627Z,100991.81
2022-09-23T13:47:48.066Z,100991.06
2022-09-23T13:52:55.325Z,100990.25
2022-09-23T13:58:14.851Z,100982.66
2022-09-23T14:03:37.446Z,100975.34
2022-09-23T14:08:41.270Z,100966.41
2022-09-23T14:13:44.732Z,100965.09
2022-09-23T14:18:49.505Z,100956.13
2022-09-23T14:23:50.835Z,100955.88
2022-09-23T14:28:52.419Z,100950.97
2022-09-23T14:33:53.787Z,100942.03
2022-09-23T14:39:02.996Z,100950.97
2022-09-23T14:44:06.763Z,100945.84
2022-09-23T14:49:10.932Z,100929.31
2022-09-23T16:40:19.834Z,100903.03
2022-09-23T17:33:21.521Z,100885.88
2022-09-23T17:38:28.635Z,100883.00
2022-09-23T17:43:31.365Z,100883.03
2022-09-23T17:48:47.109Z,100887.38
2022-09-23T17:53:54.544Z,100875.53
2022-09-23T17:59:01.225Z,100875.53
2022-09-23T18:04:19.910Z,100879.91
2022-09-23T18:09:27.953Z,100870.34
2022-09-23T18:14:32.459Z,100871.06
2022-09-23T18:19:39.882Z,100874.09
2022-09-23T18:24:50.209Z,100876.31
2022-09-23T18:30:09.272Z,100880.75
2022-09-23T18:35:19.493Z,100886.84
2022-09-23T18:40:21.515Z,100882.00
2022-09-23T18:45:27.972Z,100885.63
2022-09-23T18:50:32.901Z,100881.19
2022-09-23T18:55:37.125Z,100879.78
2022-09-23T19:06:14.871Z,100889.09
2022-09-23T19:11:23.578Z,100877.81
2022-09-23T19:17:03.250Z,100890.84
2022-09-23T19:22:07.945Z,100886.63
2022-09-23T19:27:09.880Z,100888.00
2022-09-23T19:32:15.210Z,100884.38
2022-09-23T19:37:21.912Z,100878.41
2022-09-23T19:42:35.427Z,100886.09
2022-09-23T19:48:00.942Z,100877.56
2022-09-23T19:53:08.028Z,100876.75
2022-09-23T19:58:10.719Z,100872.81
2022-09-23T20:03:15.128Z,100869.75
2022-09-23T20:08:16.796Z,100867.31
2022-09-23T20:13:27.491Z,100867.41
2022-09-23T20:18:42.196Z,100864.38
2022-09-23T20:23:50.118Z,100867.56
2022-09-23T20:28:52.946Z,100861.88
2022-09-23T20:33:58.323Z,100860.31
2022-09-23T20:39:01.981Z,100860.38
2022-09-23T20:44:07.059Z,100857.09
2022-09-23T20:49:09.143Z,100857.56
2022-09-23T20:54:11.196Z,100849.84
2022-09-23T20:59:14.535Z,100845.53
2022-09-23T21:04:20.343Z,100850.75
2022-09-23T21:09:28.573Z,100846.88
2022-09-23T21:14:31.596Z,100851.19
2022-09-23T21:19:34.237Z,100850.59
2022-09-23T21:29:52.133Z,100844.75
2022-09-23T21:34:56.688Z,100845.16
2022-09-23T21:39:58.862Z,100843.19
2022-09-23T21:45:09.760Z,100844.22
2022-09-23T21:50:17.138Z,100840.50
2022-09-23T21:55:20.244Z,100846.06
2022-09-23T22:00:33.620Z,100846.50
2022-09-23T22:05:37.335Z,100847.53
2022-09-23T22:10:42.441Z,100851.03
2022-09-23T22:15:56.598Z,100846.72
2022-09-23T22:21:02.576Z,100851.28
2022-09-23T22:26:04.781Z,100843.09
2022-09-23T22:31:08.290Z,100847.13
2022-09-23T22:36:10.403Z,100843.03
2022-09-23T22:41:14.517Z,100836.03
2022-09-23T22:46:22.422Z,100841.59
2022-09-23T22:51:24.128Z,100831.09
2022-09-23T22:56:25.881Z,100830.06
2022-09-23T23:01:45.194Z,100829.84
2022-09-23T23:06:59.058Z,100819.75
2022-09-23T23:12:08.502Z,100817.91
2022-09-23T23:17:14.391Z,100810.69
2022-09-23T23:22:19.318Z,100816.03
2022-09-23T23:27:21.542Z,100811.13
2022-09-23T23:32:30.042Z,100819.84
2022-09-23T23:37:42.702Z,100821.75
2022-09-23T23:42:46.612Z,100816.84
2022-09-23T23:47:53.753Z,100813.56
2022-09-23T23:52:55.981Z,100811.34
2022-09-23T23:57:59.018Z,100813.19
